Time;durP1;ratioP1;P1;durP2;ratioP2;P2;SDS_P1;SDS_P2;PMS_P1;PMS_P2;Temp;Humidity;BMP_temperature;BMP_pressure;BME280_temperature;BME280_humidity;BME280_pressure;Samples;Min_cycle;Max_cycle;Signal;HPM_P1;HPM_P2
2022/01/06 00:01:41;;;;;;;7.17;3.53;;;3.30;99.90;;;;;;5031741;28;20182;-69
2022/01/06 00:04:07;;;;;;;6.10;4.13;;;3.20;99.90;;;;;;5031831;28;20174;-69
2022/01/06 00:06:38;;;;;;;9.53;3.80;;;3.20;99.90;;;;;;5031370;28;20206;-69
2022/01/06 00:09:06;;;;;;;4.50;4.10;;;3.20;99.90;;;;;;5034282;28;20636;-69
2022/01/06 00:11:32;;;;;;;11.73;3.70;;;3.20;99.90;;;;;;5035723;28;20514;-70
2022/01/06 00:14:04;;;;;;;8.17;4.33;;;3.20;99.90;;;;;;5035715;28;20503;-69
2022/01/06 00:24:18;;;;;;;5.30;3.70;;;3.20;99.90;;;;;;5035646;28;20254;-70
2022/01/06 00:26:44;;;;;;;7.57;4.90;;;3.20;99.90;;;;;;5035145;28;20452;-69
2022/01/06 00:29:10;;;;;;;10.30;4.60;;;3.20;99.90;;;;;;5035473;28;20416;-69
2022/01/06 00:31:36;;;;;;;8.83;4.47;;;3.20;99.90;;;;;;5035362;28;20437;-69
2022/01/06 00:34:02;;;;;;;18.30;5.60;;;3.20;99.90;;;;;;5035502;28;20178;-69
2022/01/06 00:36:29;;;;;;;4.70;4.10;;;3.20;99.90;;;;;;5035084;28;20417;-69
2022/01/06 00:38:55;;;;;;;10.60;4.60;;;3.20;99.90;;;;;;5035371;28;20647;-69
2022/01/06 00:41:20;;;;;;;4.63;3.23;;;3.20;99.90;;;;;;5035184;28;20445;-70
2022/01/06 00:43:46;;;;;;;9.23;4.40;;;3.30;99.90;;;;;;5035165;28;20170;-70
2022/01/06 00:46:11;;;;;;;7.90;4.20;;;3.30;99.90;;;;;;5034559;28;20182;-69
2022/01/06 00:48:37;;;;;;;7.10;5.30;;;3.30;99.90;;;;;;5035172;28;20232;-69
2022/01/06 00:51:03;;;;;;;5.90;3.93;;;3.30;99.90;;;;;;5035002;28;20213;-69
2022/01/06 00:53:28;;;;;;;9.87;4.63;;;3.30;99.90;;;;;;5035051;28;20193;-69
2022/01/06 00:55:53;;;;;;;6.70;4.40;;;3.30;99.90;;;;;;5034707;28;20177;-70
2022/01/06 00:58:19;;;;;;;6.00;4.97;;;3.30;99.90;;;;;;5034950;28;20181;-69
2022/01/06 01:00:45;;;;;;;3.73;3.37;;;3.20;99.90;;;;;;5034756;28;20204;-69
2022/01/06 01:03:21;;;;;;;7.60;4.33;;;3.20;99.90;;;;;;5034841;28;20177;-69
2022/01/06 01:05:50;;;;;;;4.57;3.40;;;3.20;99.90;;;;;;5034531;28;20269;-68
2022/01/06 01:08:16;;;;;;;8.27;4.57;;;3.10;99.90;;;;;;5034661;28;21003;-69
2022/01/06 01:10:43;;;;;;;6.07;4.10;;;3.10;99.90;;;;;;5034620;28;20512;-70
2022/01/06 01:13:11;;;;;;;5.20;3.70;;;3.10;99.90;;;;;;5034733;28;20425;-70
2022/01/06 01:15:53;;;;;;;5.70;3.40;;;3.10;99.90;;;;;;5034372;28;20412;-69
2022/01/06 01:18:20;;;;;;;9.47;3.73;;;3.20;99.90;;;;;;5034439;28;20496;-69
2022/01/06 01:20:47;;;;;;;4.83;3.60;;;3.20;99.90;;;;;;5034160;28;20436;-69
2022/01/06 01:23:13;;;;;;;10.60;4.60;;;3.20;99.90;;;;;;5034460;28;20474;-69
2022/01/06 01:25:39;;;;;;;5.83;3.30;;;3.20;99.90;;;;;;5034174;28;20424;-70
2022/01/06 01:28:04;;;;;;;5.53;4.20;;;3.20;99.90;;;;;;5034190;28;20452;-69
2022/01/06 01:30:39;;;;;;;5.90;3.67;;;3.20;99.90;;;;;;5034260;28;20244;-70
2022/01/06 01:33:13;;;;;;;5.53;3.27;;;3.30;99.90;;;;;;5034387;28;20161;-69
2022/01/06 01:35:39;;;;;;;6.27;4.50;;;3.30;99.90;;;;;;5034062;28;20412;-70
2022/01/06 01:38:04;;;;;;;6.33;4.27;;;3.30;99.90;;;;;;5034207;28;20777;-70
2022/01/06 01:40:30;;;;;;;7.97;3.70;;;3.40;99.90;;;;;;5034083;28;20167;-69
2022/01/06 01:42:55;;;;;;;6.90;4.00;;;3.40;99.90;;;;;;5034132;28;20181;-70
2022/01/06 01:45:27;;;;;;;4.80;4.20;;;3.40;99.90;;;;;;5033880;28;20178;-69
2022/01/06 01:47:53;;;;;;;6.73;4.17;;;3.40;99.90;;;;;;5033899;28;20198;-70
2022/01/06 01:50:20;;;;;;;9.30;3.80;;;3.40;99.90;;;;;;5033928;28;20423;-69
2022/01/06 01:52:49;;;;;;;9.73;3.90;;;3.40;99.90;;;;;;5033824;28;20190;-70
2022/01/06 01:55:19;;;;;;;8.30;3.80;;;3.40;99.90;;;;;;5033553;28;20419;-69
2022/01/06 01:57:45;;;;;;;7.03;3.63;;;3.40;99.90;;;;;;5033878;28;20445;-69
2022/01/06 02:00:13;;;;;;;8.10;4.17;;;3.30;99.90;;;;;;5033762;28;20958;-69
2022/01/06 02:02:39;;;;;;;15.27;5.00;;;3.30;99.90;;;;;;5033707;28;20636;-69
2022/01/06 02:05:06;;;;;;;7.77;4.47;;;3.20;99.90;;;;;;5033423;28;20428;-70
2022/01/06 02:07:33;;;;;;;9.00;5.00;;;3.10;99.90;;;;;;5033504;28;20510;-69
2022/01/06 02:09:59;;;;;;;8.33;4.10;;;3.10;99.90;;;;;;5033601;28;20453;-69
2022/01/06 02:12:30;;;;;;;12.23;5.30;;;3.10;99.90;;;;;;5033700;28;20804;-69
2022/01/06 02:14:56;;;;;;;4.80;3.77;;;3.10;99.90;;;;;;5033559;28;20231;-69
2022/01/06 02:17:22;;;;;;;10.47;4.97;;;3.10;99.90;;;;;;5033320;28;20794;-70
2022/01/06 02:19:55;;;;;;;7.70;4.80;;;3.10;99.90;;;;;;5033353;28;20409;-69
2022/01/06 02:22:21;;;;;;;9.37;4.40;;;3.10;99.90;;;;;;5033280;28;20607;-70
2022/01/06 02:24:47;;;;;;;8.90;4.87;;;3.10;99.90;;;;;;5033372;28;20501;-69
2022/01/06 02:27:12;;;;;;;8.70;4.73;;;3.00;99.90;;;;;;5032968;28;20553;-69
2022/01/06 02:29:38;;;;;;;11.50;4.27;;;3.10;99.90;;;;;;5033393;28;20640;-70
2022/01/06 02:32:14;;;;;;;8.50;4.90;;;3.00;99.90;;;;;;5032345;28;20186;-69
2022/01/06 02:34:39;;;;;;;8.00;4.90;;;3.00;99.90;;;;;;5033064;28;20647;-69
2022/01/06 02:37:05;;;;;;;4.67;4.17;;;3.20;99.90;;;;;;5032815;28;20413;-69
2022/01/06 02:39:30;;;;;;;6.17;4.33;;;3.20;99.90;;;;;;5033045;28;20544;-69
2022/01/06 02:41:56;;;;;;;5.30;4.47;;;3.30;99.90;;;;;;5032868;28;20201;-70
2022/01/06 02:44:24;;;;;;;6.23;3.93;;;3.30;99.90;;;;;;5033010;28;20170;-69
2022/01/06 02:46:50;;;;;;;7.10;3.50;;;3.40;99.90;;;;;;5032459;28;20201;-70
2022/01/06 02:49:16;;;;;;;9.03;4.43;;;3.40;99.90;;;;;;5032870;28;20424;-69
2022/01/06 02:51:42;;;;;;;7.13;4.73;;;3.30;99.90;;;;;;5032752;28;20487;-69
2022/01/06 02:54:08;;;;;;;9.87;4.60;;;3.30;99.90;;;;;;5032881;28;20535;-69
2022/01/06 02:56:33;;;;;;;7.00;4.63;;;3.20;99.90;;;;;;5032402;28;20185;-70
2022/01/06 02:58:59;;;;;;;7.33;4.70;;;3.20;99.90;;;;;;5032730;28;20880;-69
2022/01/06 03:01:24;;;;;;;8.77;4.70;;;3.20;99.90;;;;;;5032602;28;20190;-70
2022/01/06 03:03:50;;;;;;;8.83;5.30;;;3.20;99.90;;;;;;5032557;28;20171;-70
2022/01/06 03:06:16;;;;;;;8.27;4.73;;;3.20;99.90;;;;;;5032199;28;20511;-70
2022/01/06 03:08:41;;;;;;;11.70;4.50;;;3.10;99.90;;;;;;5032569;28;20172;-69
2022/01/06 03:11:07;;;;;;;8.33;4.87;;;3.10;99.90;;;;;;5032416;28;20190;-69
2022/01/06 03:13:33;;;;;;;5.63;4.07;;;3.10;99.90;;;;;;5032487;28;20163;-69
2022/01/06 03:16:01;;;;;;;10.47;4.57;;;3.00;99.90;;;;;;5032117;28;20431;-69
2022/01/06 03:18:27;;;;;;;5.53;3.90;;;3.00;99.90;;;;;;5032436;28;20413;-69
2022/01/06 03:20:52;;;;;;;6.70;3.60;;;3.10;99.90;;;;;;5032237;28;20499;-69
2022/01/06 03:23:18;;;;;;;5.83;3.97;;;3.00;99.90;;;;;;5032468;28;20544;-69
2022/01/06 03:25:44;;;;;;;5.53;4.03;;;3.00;99.90;;;;;;5031949;28;20178;-69
2022/01/06 03:28:10;;;;;;;4.50;3.80;;;3.10;99.90;;;;;;5032148;28;20312;-69
2022/01/06 03:30:35;;;;;;;3.87;3.50;;;3.20;99.90;;;;;;5032127;28;20179;-69
2022/01/06 03:33:01;;;;;;;6.90;4.00;;;3.20;99.90;;;;;;5032134;28;20471;-69
2022/01/06 03:35:27;;;;;;;10.00;4.37;;;3.30;99.90;;;;;;5031845;28;20170;-69
2022/01/06 03:37:52;;;;;;;4.77;3.57;;;3.30;99.90;;;;;;5032136;28;20178;-69
2022/01/06 03:40:18;;;;;;;4.90;3.93;;;3.30;99.90;;;;;;5032144;28;20174;-69
2022/01/06 03:42:44;;;;;;;7.13;3.97;;;3.30;99.90;;;;;;5031776;28;20194;-69
2022/01/06 03:45:13;;;;;;;5.50;3.73;;;3.20;99.90;;;;;;5031744;28;20424;-70
2022/01/06 03:47:39;;;;;;;9.57;4.87;;;3.30;99.90;;;;;;5031824;28;20209;-69
2022/01/06 03:50:06;;;;;;;7.43;4.20;;;3.20;99.90;;;;;;5031962;28;20413;-69
2022/01/06 03:52:31;;;;;;;5.30;3.73;;;3.10;99.90;;;;;;5031873;28;20572;-69
2022/01/06 03:54:57;;;;;;;4.73;3.93;;;3.10;99.90;;;;;;5031853;28;20409;-69
2022/01/06 03:57:22;;;;;;;7.40;3.90;;;3.10;99.90;;;;;;5031701;28;20593;-69
2022/01/06 03:59:48;;;;;;;5.97;4.43;;;3.10;99.90;;;;;;5032352;28;20205;-68
2022/01/06 04:02:13;;;;;;;8.60;4.13;;;3.10;99.90;;;;;;5031736;28;20285;-68
2022/01/06 04:04:39;;;;;;;8.50;4.00;;;3.10;99.90;;;;;;5031831;28;20266;-69
2022/01/06 04:07:05;;;;;;;6.33;3.80;;;3.10;99.90;;;;;;5031449;28;20198;-68
2022/01/06 04:09:30;;;;;;;10.93;4.20;;;3.10;99.90;;;;;;5031786;28;20524;-68
2022/01/06 04:11:56;;;;;;;6.23;4.67;;;3.10;99.90;;;;;;5031650;28;20440;-69
2022/01/06 04:14:21;;;;;;;8.10;3.50;;;3.10;99.90;;;;;;5031804;28;20648;-69
2022/01/06 04:16:47;;;;;;;3.73;3.37;;;3.00;99.90;;;;;;5031489;28;20539;-68
2022/01/06 04:19:12;;;;;;;4.53;3.73;;;3.00;99.90;;;;;;5031672;28;20204;-68
2022/01/06 04:21:38;;;;;;;5.33;4.13;;;3.00;99.90;;;;;;5031699;28;20209;-68
2022/01/06 04:24:04;;;;;;;8.03;3.83;;;3.00;99.90;;;;;;5031701;28;20174;-68
2022/01/06 04:26:30;;;;;;;4.27;3.37;;;3.00;99.90;;;;;;5031286;28;20194;-69
2022/01/06 04:28:55;;;;;;;3.90;3.27;;;3.00;99.90;;;;;;5031617;28;20421;-68
2022/01/06 04:31:21;;;;;;;5.20;4.53;;;3.10;99.90;;;;;;5031463;28;20548;-68
2022/01/06 04:33:47;;;;;;;6.40;3.30;;;3.10;99.90;;;;;;5031646;28;20309;-68
2022/01/06 04:36:12;;;;;;;4.80;4.17;;;3.10;99.90;;;;;;5031250;28;20466;-69
2022/01/06 04:38:38;;;;;;;6.90;3.97;;;3.10;99.90;;;;;;5031571;28;20198;-69
2022/01/06 04:41:04;;;;;;;4.03;3.40;;;3.10;99.90;;;;;;5031407;28;20190;-68
2022/01/06 04:43:30;;;;;;;4.80;3.40;;;3.10;99.90;;;;;;5031527;28;20205;-68
2022/01/06 04:45:56;;;;;;;4.90;3.90;;;3.20;99.90;;;;;;5031096;28;20432;-69
2022/01/06 04:48:22;;;;;;;6.87;4.10;;;3.20;99.90;;;;;;5031425;28;20465;-68
2022/01/06 04:50:47;;;;;;;4.73;3.67;;;3.20;99.90;;;;;;5031365;28;20201;-68
2022/01/06 04:53:13;;;;;;;3.90;3.40;;;3.20;99.90;;;;;;5031581;28;20733;-68
2022/01/06 04:55:38;;;;;;;7.13;3.73;;;3.10;99.90;;;;;;5034170;28;20655;-69
2022/01/06 04:58:04;;;;;;;7.60;3.60;;;3.20;99.90;;;;;;5034908;28;20645;-68
2022/01/06 05:00:29;;;;;;;5.80;3.40;;;3.20;99.90;;;;;;5034809;28;20548;-69
2022/01/06 05:02:55;;;;;;;5.77;3.90;;;3.20;99.90;;;;;;5034904;28;20660;-68
2022/01/06 05:05:20;;;;;;;5.00;3.90;;;3.20;99.90;;;;;;5034606;28;20228;-68
2022/01/06 05:07:46;;;;;;;4.50;3.80;;;3.20;99.90;;;;;;5034730;28;20267;-68
2022/01/06 05:10:11;;;;;;;3.87;3.50;;;3.10;99.90;;;;;;5034805;28;20181;-69
2022/01/06 05:12:41;;;;;;;4.10;3.53;;;3.10;99.90;;;;;;5034660;28;20186;-69
2022/01/06 05:15:08;;;;;;;8.73;4.10;;;3.10;99.90;;;;;;5034181;28;20170;-69
2022/01/06 05:17:34;;;;;;;6.80;4.30;;;3.10;99.90;;;;;;5034624;28;20417;-68
2022/01/06 05:20:00;;;;;;;6.30;5.50;;;3.10;99.90;;;;;;5034539;28;20948;-68
2022/01/06 05:22:26;;;;;;;6.07;4.03;;;3.10;99.90;;;;;;5034492;28;20205;-69
2022/01/06 05:24:53;;;;;;;6.10;4.63;;;3.10;99.90;;;;;;5034432;28;20549;-68
2022/01/06 05:27:19;;;;;;;7.80;3.50;;;3.10;99.90;;;;;;5034125;28;20464;-68
2022/01/06 05:29:44;;;;;;;5.43;4.37;;;3.10;99.90;;;;;;5034398;28;20960;-68
2022/01/06 05:32:11;;;;;;;8.47;4.17;;;3.10;99.90;;;;;;5034352;28;20588;-69
2022/01/06 05:34:36;;;;;;;4.60;4.00;;;3.10;99.90;;;;;;5034316;28;20704;-68
2022/01/06 05:37:02;;;;;;;7.20;3.90;;;3.10;99.90;;;;;;5034100;28;20524;-68
2022/01/06 05:39:28;;;;;;;9.10;4.83;;;3.10;99.90;;;;;;5034218;28;20232;-68
2022/01/06 05:41:53;;;;;;;9.37;4.50;;;3.10;99.90;;;;;;5042543;28;20659;-68
2022/01/06 05:44:19;;;;;;;4.93;3.47;;;3.10;99.90;;;;;;5043986;28;20184;-68
2022/01/06 05:46:47;;;;;;;4.27;3.87;;;3.20;99.90;;;;;;5043570;28;20198;-68
2022/01/06 05:49:13;;;;;;;7.03;4.67;;;3.10;99.90;;;;;;5050994;28;20215;-68
2022/01/06 05:51:39;;;;;;;5.20;4.30;;;3.20;99.90;;;;;;5053620;28;20949;-69
2022/01/06 05:54:05;;;;;;;7.97;4.33;;;3.10;99.90;;;;;;5053741;28;20435;-68
2022/01/06 05:56:31;;;;;;;5.03;3.80;;;3.10;99.90;;;;;;5053454;28;20530;-69
2022/01/06 05:58:57;;;;;;;5.80;4.30;;;3.10;99.90;;;;;;5053786;28;20173;-68
2022/01/06 06:01:22;;;;;;;6.90;3.73;;;3.00;99.90;;;;;;5053663;28;20914;-68
2022/01/06 06:03:49;;;;;;;5.43;4.10;;;3.10;99.90;;;;;;5053434;28;20174;-70
2022/01/06 06:06:15;;;;;;;8.93;4.33;;;3.20;99.90;;;;;;5050791;28;20189;-66
2022/01/06 06:08:40;;;;;;;4.13;3.27;;;3.20;99.90;;;;;;5044169;28;20413;-66
2022/01/06 06:11:07;;;;;;;4.23;3.40;;;3.20;99.90;;;;;;5042113;28;20186;-66
2022/01/06 06:13:32;;;;;;;7.10;4.73;;;3.20;99.90;;;;;;5037940;28;20592;-69
2022/01/06 06:15:58;;;;;;;13.10;4.00;;;3.10;99.90;;;;;;5036019;28;20424;-67
2022/01/06 06:18:23;;;;;;;6.90;3.50;;;3.10;99.90;;;;;;5033525;28;20166;-67
2022/01/06 06:20:49;;;;;;;7.60;4.90;;;3.10;99.90;;;;;;5033229;28;20247;-67
2022/01/06 06:23:15;;;;;;;8.00;4.90;;;3.10;99.90;;;;;;5033409;28;20186;-67
2022/01/06 06:25:40;;;;;;;4.50;4.10;;;3.00;99.90;;;;;;5032618;28;20167;-67
2022/01/06 06:28:06;;;;;;;4.30;3.90;;;3.00;99.90;;;;;;5032074;28;20340;-67
2022/01/06 06:30:31;;;;;;;5.60;4.40;;;3.00;99.90;;;;;;5033148;28;20202;-67
2022/01/06 06:32:57;;;;;;;5.57;5.07;;;3.00;99.90;;;;;;5033147;28;20170;-67
2022/01/06 06:35:23;;;;;;;6.13;4.30;;;2.90;99.90;;;;;;5032381;28;20162;-67
2022/01/06 06:37:49;;;;;;;5.13;4.63;;;2.90;99.90;;;;;;5033037;28;20628;-67
2022/01/06 06:40:14;;;;;;;6.40;3.40;;;2.90;99.90;;;;;;5033008;28;20759;-67
2022/01/06 06:42:40;;;;;;;8.87;4.30;;;2.90;99.90;;;;;;5032926;28;20683;-67
2022/01/06 06:45:08;;;;;;;4.10;3.50;;;2.90;99.90;;;;;;5032716;28;20250;-67
2022/01/06 06:47:33;;;;;;;7.27;4.40;;;2.90;99.90;;;;;;5032687;28;20205;-67
2022/01/06 06:49:59;;;;;;;7.30;4.60;;;3.00;99.90;;;;;;5032818;28;20783;-67
2022/01/06 06:52:26;;;;;;;5.40;4.90;;;3.00;99.90;;;;;;5032970;28;20573;-67
2022/01/06 06:54:53;;;;;;;7.33;4.03;;;3.00;99.90;;;;;;5032741;28;20427;-67
2022/01/06 06:57:20;;;;;;;9.50;4.60;;;3.00;99.90;;;;;;5032528;28;20420;-67
2022/01/06 06:59:45;;;;;;;5.70;4.20;;;3.00;99.90;;;;;;5032698;28;20453;-67
2022/01/06 07:02:11;;;;;;;4.33;3.77;;;3.10;99.90;;;;;;5032658;28;20479;-67
2022/01/06 07:04:37;;;;;;;5.13;4.60;;;3.10;99.90;;;;;;5032602;28;20716;-67
2022/01/06 07:07:02;;;;;;;4.50;3.70;;;3.10;99.90;;;;;;5032143;28;20234;-67
2022/01/06 07:09:28;;;;;;;6.77;5.10;;;3.10;99.90;;;;;;5032796;28;20223;-67
2022/01/06 07:11:53;;;;;;;7.80;3.97;;;3.10;99.90;;;;;;5032447;28;20208;-67
2022/01/06 07:14:19;;;;;;;6.20;4.17;;;3.10;99.90;;;;;;5032532;28;20166;-67
2022/01/06 07:16:44;;;;;;;3.70;3.40;;;3.10;99.90;;;;;;5031788;28;20182;-67
2022/01/06 07:19:10;;;;;;;9.33;3.80;;;3.10;99.90;;;;;;5032317;28;20525;-67
2022/01/06 07:21:35;;;;;;;6.13;3.27;;;3.20;99.90;;;;;;5032383;28;20198;-67
2022/01/06 07:24:01;;;;;;;6.57;4.90;;;3.20;99.90;;;;;;5032347;28;20186;-67
2022/01/06 07:26:26;;;;;;;6.20;3.57;;;3.30;99.90;;;;;;5031869;28;20201;-67
2022/01/06 07:28:52;;;;;;;6.57;4.43;;;3.30;99.90;;;;;;5032280;28;20181;-67
2022/01/06 07:31:17;;;;;;;5.60;3.33;;;3.30;99.90;;;;;;5032198;28;20281;-67
2022/01/06 07:33:43;;;;;;;6.03;4.00;;;3.30;99.90;;;;;;5031673;28;20170;-67
2022/01/06 07:36:08;;;;;;;7.00;4.30;;;3.30;99.90;;;;;;5031753;28;20173;-67
2022/01/06 07:38:34;;;;;;;6.97;3.97;;;3.40;99.90;;;;;;5032085;28;20173;-67
2022/01/06 07:41:00;;;;;;;5.63;3.90;;;3.40;99.90;;;;;;5031975;28;20276;-67
2022/01/06 07:43:25;;;;;;;8.50;4.30;;;3.40;99.90;;;;;;5032034;28;20170;-67
2022/01/06 07:45:51;;;;;;;6.73;3.70;;;3.40;99.90;;;;;;5031584;28;20762;-67
2022/01/06 07:48:25;;;;;;;3.80;3.50;;;3.30;99.90;;;;;;5032014;28;20206;-67
2022/01/06 07:50:51;;;;;;;6.10;3.90;;;3.30;99.90;;;;;;5031945;28;20186;-67
2022/01/06 07:53:16;;;;;;;5.47;3.10;;;3.30;99.90;;;;;;5031977;28;20423;-67
2022/01/06 07:55:42;;;;;;;6.47;5.87;;;3.40;99.90;;;;;;5031680;28;20413;-67
2022/01/06 07:58:07;;;;;;;8.83;4.37;;;3.40;99.90;;;;;;5031877;28;20598;-67
2022/01/06 08:00:33;;;;;;;11.37;6.33;;;3.40;99.90;;;;;;5031827;28;20166;-67
2022/01/06 08:02:59;;;;;;;8.00;4.93;;;3.30;99.90;;;;;;5031905;28;20181;-67
2022/01/06 08:05:26;;;;;;;7.43;4.60;;;3.30;99.90;;;;;;5031572;28;20479;-67
2022/01/06 08:07:53;;;;;;;5.90;3.90;;;3.40;99.90;;;;;;5031730;28;20197;-67
2022/01/06 08:10:19;;;;;;;4.77;3.60;;;3.40;99.90;;;;;;5031765;28;20413;-67
2022/01/06 08:12:44;;;;;;;7.40;4.20;;;3.40;99.90;;;;;;5031676;28;20444;-67
2022/01/06 08:15:10;;;;;;;4.77;3.43;;;3.50;99.90;;;;;;5031559;28;20174;-67
2022/01/06 08:17:37;;;;;;;4.93;3.90;;;3.60;99.90;;;;;;5031773;28;20179;-67
2022/01/06 08:20:04;;;;;;;4.20;3.40;;;3.70;99.90;;;;;;5031770;28;20499;-67
2022/01/06 08:22:30;;;;;;;7.60;3.20;;;4.30;99.90;;;;;;5031564;28;20445;-67
2022/01/06 08:24:56;;;;;;;5.90;3.60;;;5.40;99.90;;;;;;5031585;28;20756;-68
2022/01/06 08:27:23;;;;;;;3.60;3.17;;;6.20;99.90;;;;;;5031342;28;20281;-65
2022/01/06 08:29:50;;;;;;;5.90;4.10;;;6.90;99.90;;;;;;5033959;28;20698;-65
2022/01/06 08:32:15;;;;;;;6.83;3.67;;;7.80;99.90;;;;;;5035428;28;20460;-65
2022/01/06 08:34:41;;;;;;;5.90;3.27;;;9.10;99.90;;;;;;5035419;28;20475;-65
2022/01/06 08:37:07;;;;;;;6.10;3.40;;;10.00;99.90;;;;;;5035218;28;20174;-65
2022/01/06 08:39:32;;;;;;;5.90;3.10;;;10.90;99.90;;;;;;5035409;28;20695;-66
2022/01/06 08:41:58;;;;;;;5.80;3.83;;;12.00;99.90;;;;;;5035230;28;20229;-66
2022/01/06 08:44:24;;;;;;;5.70;4.17;;;12.30;99.90;;;;;;5035296;28;20175;-65
2022/01/06 08:46:49;;;;;;;4.77;3.30;;;12.50;99.90;;;;;;5034809;28;20229;-65
2022/01/06 08:49:15;;;;;;;3.80;3.43;;;13.00;99.90;;;;;;5035125;28;20240;-65
2022/01/06 08:51:41;;;;;;;4.17;2.83;;;13.20;99.90;;;;;;5034957;28;20222;-65
2022/01/06 08:54:07;;;;;;;8.67;4.90;;;13.20;99.90;;;;;;5035185;28;20421;-65
2022/01/06 08:56:36;;;;;;;8.00;5.60;;;14.00;99.90;;;;;;5034690;28;20416;-65
2022/01/06 08:59:03;;;;;;;4.27;3.90;;;14.70;99.70;;;;;;5035117;28;20505;-65
2022/01/06 09:01:29;;;;;;;4.70;3.40;;;14.90;97.70;;;;;;5034843;28;20436;-65
2022/01/06 09:03:55;;;;;;;3.23;2.93;;;14.20;96.90;;;;;;5034799;28;20417;-65
2022/01/06 09:06:20;;;;;;;4.90;3.20;;;13.90;97.00;;;;;;5034493;28;20170;-65
2022/01/06 09:08:47;;;;;;;5.67;3.20;;;12.90;99.20;;;;;;5034865;28;20170;-65
2022/01/06 09:11:13;;;;;;;5.23;3.60;;;12.30;99.90;;;;;;5034629;28;20719;-65
2022/01/06 09:13:38;;;;;;;5.90;3.43;;;11.70;99.90;;;;;;5034653;28;20409;-65
2022/01/06 09:16:08;;;;;;;9.80;3.60;;;10.90;99.90;;;;;;5034409;28;20424;-65
2022/01/06 09:18:34;;;;;;;5.20;4.00;;;10.60;99.90;;;;;;5034545;28;20225;-65
2022/01/06 09:21:00;;;;;;;5.90;4.83;;;10.60;99.90;;;;;;5034511;28;20445;-65
2022/01/06 09:23:25;;;;;;;8.80;4.33;;;10.40;99.90;;;;;;5034514;28;20463;-67
2022/01/06 09:25:51;;;;;;;5.43;3.53;;;10.40;99.90;;;;;;5034170;28;20549;-68
2022/01/06 09:28:16;;;;;;;5.40;3.37;;;11.00;99.90;;;;;;5034374;28;20194;-68
2022/01/06 09:30:42;;;;;;;4.90;3.27;;;11.00;99.90;;;;;;5034433;28;20167;-68
2022/01/06 09:33:08;;;;;;;4.70;3.30;;;11.40;99.90;;;;;;5034366;28;20166;-65
2022/01/06 09:35:33;;;;;;;6.63;3.20;;;11.00;99.90;;;;;;5034043;28;20209;-65
2022/01/06 09:37:59;;;;;;;4.50;3.13;;;10.60;99.90;;;;;;5034363;28;20604;-68
2022/01/06 09:40:25;;;;;;;9.03;2.97;;;9.60;99.90;;;;;;5033811;28;20687;-68
2022/01/06 09:42:50;;;;;;;3.40;3.07;;;8.70;99.90;;;;;;5034375;28;20209;-67
2022/01/06 09:45:16;;;;;;;13.27;3.53;;;8.10;99.90;;;;;;5033830;28;20175;-65
2022/01/06 09:47:42;;;;;;;4.07;3.00;;;7.70;99.90;;;;;;5033890;28;20222;-68
2022/01/06 09:50:10;;;;;;;3.93;3.40;;;7.60;99.90;;;;;;5034016;28;20417;-65
2022/01/06 09:52:36;;;;;;;4.57;3.00;;;7.40;99.90;;;;;;5033873;28;20941;-68
2022/01/06 09:55:03;;;;;;;4.83;3.20;;;7.20;99.90;;;;;;5033623;28;20445;-67
2022/01/06 09:57:30;;;;;;;6.30;3.13;;;6.90;99.90;;;;;;5033911;28;20421;-67
2022/01/06 09:59:55;;;;;;;6.03;3.33;;;6.70;99.90;;;;;;5034348;28;20417;-67
2022/01/06 10:02:21;;;;;;;5.83;3.00;;;6.50;99.90;;;;;;5033693;28;20443;-67
2022/01/06 10:04:59;;;;;;;8.50;3.40;;;6.50;99.90;;;;;;5033783;28;20170;-67
2022/01/06 10:07:24;;;;;;;4.30;3.10;;;6.50;99.90;;;;;;5033563;28;20244;-67
2022/01/06 10:09:50;;;;;;;6.07;2.80;;;6.70;99.90;;;;;;5033784;28;20417;-67
2022/01/06 10:12:16;;;;;;;9.60;3.33;;;7.20;99.90;;;;;;5033549;28;20277;-67
2022/01/06 10:14:46;;;;;;;9.23;3.97;;;7.10;99.90;;;;;;5033584;28;20545;-67
2022/01/06 10:17:27;;;;;;;5.50;3.50;;;7.40;99.90;;;;;;5033232;28;20421;-67
2022/01/06 10:19:54;;;;;;;7.63;3.33;;;7.60;99.90;;;;;;5033529;28;20475;-67
2022/01/06 10:22:20;;;;;;;8.47;3.87;;;8.20;99.90;;;;;;5033240;28;20441;-67
2022/01/06 10:24:48;;;;;;;3.97;3.57;;;8.10;99.90;;;;;;5033377;28;20788;-67
2022/01/06 10:27:19;;;;;;;6.47;3.07;;;7.90;99.90;;;;;;5032991;28;20449;-67
2022/01/06 10:29:47;;;;;;;8.70;5.73;;;7.70;99.90;;;;;;5033328;28;20829;-67
2022/01/06 10:32:19;;;;;;;5.53;4.37;;;7.80;99.90;;;;;;5033124;28;20448;-67
2022/01/06 10:34:49;;;;;;;5.27;3.13;;;8.00;99.90;;;;;;5033073;28;20421;-67
2022/01/06 10:37:22;;;;;;;6.90;3.50;;;7.70;99.90;;;;;;5031602;28;20432;-67
2022/01/06 10:39:49;;;;;;;7.40;3.90;;;7.30;99.90;;;;;;5033126;28;20417;-67
2022/01/06 10:42:16;;;;;;;5.97;3.43;;;7.00;99.90;;;;;;5032942;28;20484;-67
2022/01/06 10:44:50;;;;;;;10.50;5.43;;;7.40;99.90;;;;;;5033017;28;20500;-67
2022/01/06 10:47:29;;;;;;;5.60;3.30;;;7.60;99.90;;;;;;5032397;28;20456;-67
2022/01/06 10:50:15;;;;;;;5.57;3.30;;;7.20;99.90;;;;;;5033103;28;20466;-67
2022/01/06 10:52:52;;;;;;;7.83;3.83;;;7.10;99.90;;;;;;5032238;28;20515;-67
2022/01/06 10:55:23;;;;;;;6.33;3.20;;;7.10;99.90;;;;;;5032497;28;20417;-67
2022/01/06 10:57:50;;;;;;;6.50;2.90;;;7.00;99.90;;;;;;5032774;28;20416;-67
2022/01/06 11:00:17;;;;;;;3.20;2.97;;;6.80;99.90;;;;;;5032789;28;20444;-67
2022/01/06 11:02:43;;;;;;;6.57;2.87;;;6.60;99.90;;;;;;5032567;28;20502;-67
2022/01/06 11:05:08;;;;;;;5.57;3.10;;;6.40;99.90;;;;;;5032370;28;20986;-67
2022/01/06 11:07:35;;;;;;;9.40;3.80;;;6.10;99.90;;;;;;5032504;28;20325;-67
2022/01/06 11:10:03;;;;;;;3.83;2.53;;;6.10;99.90;;;;;;5032529;28;20190;-67
2022/01/06 11:12:30;;;;;;;6.70;3.43;;;5.90;99.90;;;;;;5032428;28;20779;-67
2022/01/06 11:14:57;;;;;;;6.57;3.00;;;5.70;99.90;;;;;;5032400;28;20427;-67
2022/01/06 11:17:24;;;;;;;11.60;3.27;;;5.50;99.90;;;;;;5032186;28;20564;-67
2022/01/06 11:19:50;;;;;;;11.03;5.30;;;5.40;99.90;;;;;;5032745;28;20425;-67
2022/01/06 11:22:23;;;;;;;6.73;2.60;;;5.50;99.90;;;;;;5032291;28;20438;-67
2022/01/06 11:24:57;;;;;;;7.33;2.67;;;5.50;99.90;;;;;;5032384;28;20421;-67
2022/01/06 11:27:31;;;;;;;5.03;2.90;;;5.80;99.90;;;;;;5032132;28;20457;-67
2022/01/06 11:30:11;;;;;;;3.57;2.53;;;6.70;99.90;;;;;;5032263;28;20784;-67
2022/01/06 11:32:37;;;;;;;6.27;2.50;;;10.10;99.90;;;;;;5032483;28;20945;-67
2022/01/06 11:35:08;;;;;;;4.97;2.70;;;12.40;99.90;;;;;;5032115;28;20475;-67
2022/01/06 11:37:45;;;;;;;6.63;2.97;;;14.80;97.30;;;;;;5032200;28;20500;-67
2022/01/06 11:40:13;;;;;;;7.60;2.50;;;16.70;91.10;;;;;;5032148;28;20852;-67
2022/01/06 11:42:38;;;;;;;5.00;2.40;;;15.50;88.40;;;;;;5032010;28;20450;-67
2022/01/06 11:45:05;;;;;;;7.50;3.13;;;13.80;91.10;;;;;;5031901;28;21003;-67
2022/01/06 11:47:34;;;;;;;4.80;2.37;;;12.10;94.30;;;;;;5031980;28;20297;-67
2022/01/06 11:50:21;;;;;;;7.60;3.00;;;10.40;98.30;;;;;;5032097;28;20419;-67
2022/01/06 11:52:50;;;;;;;4.93;2.20;;;9.10;99.90;;;;;;5031928;28;20463;-67
2022/01/06 11:55:16;;;;;;;7.00;2.57;;;8.20;99.90;;;;;;5031747;28;20467;-67
2022/01/06 11:57:42;;;;;;;4.13;1.70;;;7.70;99.90;;;;;;5031909;28;20417;-67
2022/01/06 12:00:26;;;;;;;4.47;1.87;;;7.20;99.90;;;;;;5031868;28;20174;-67
2022/01/06 12:02:59;;;;;;;5.67;2.10;;;6.90;99.90;;;;;;5032445;28;20166;-67
2022/01/06 12:05:25;;;;;;;13.80;3.37;;;6.60;99.90;;;;;;5035763;28;20440;-67
2022/01/06 12:07:53;;;;;;;4.73;2.33;;;6.60;99.90;;;;;;5035948;28;20535;-67
2022/01/06 12:10:20;;;;;;;9.00;2.87;;;6.70;99.90;;;;;;5034909;28;20424;-67
2022/01/06 12:12:49;;;;;;;9.07;2.93;;;6.90;99.90;;;;;;5035758;28;20479;-67
2022/01/06 12:15:17;;;;;;;12.17;2.70;;;7.90;99.90;;;;;;5035490;28;20420;-67
2022/01/06 12:17:54;;;;;;;4.47;1.97;;;11.60;99.90;;;;;;5035749;28;20474;-67
2022/01/06 12:20:25;;;;;;;4.00;2.57;;;15.80;93.90;;;;;;5035768;28;20417;-68
2022/01/06 12:22:51;;;;;;;6.40;3.50;;;19.40;77.90;;;;;;5035717;28;20512;-67
2022/01/06 12:25:20;;;;;;;7.67;3.13;;;18.50;69.90;;;;;;5035249;28;20492;-67
2022/01/06 12:27:48;;;;;;;4.10;2.83;;;15.90;76.10;;;;;;5035509;28;20206;-67
2022/01/06 12:30:15;;;;;;;8.77;4.47;;;13.70;84.10;;;;;;5035321;28;20409;-67
2022/01/06 12:32:41;;;;;;;4.80;2.57;;;12.10;91.50;;;;;;5035289;28;20455;-67
2022/01/06 12:35:07;;;;;;;17.80;3.70;;;10.80;95.60;;;;;;5035003;28;20420;-67
2022/01/06 12:37:32;;;;;;;5.00;2.60;;;9.90;99.60;;;;;;5035306;28;20170;-67
2022/01/06 12:40:00;;;;;;;19.67;3.00;;;9.30;99.90;;;;;;5035363;28;20182;-67
2022/01/06 12:42:25;;;;;;;5.13;3.40;;;8.90;99.90;;;;;;5035290;28;20190;-67
2022/01/06 12:44:51;;;;;;;5.40;3.23;;;8.70;99.90;;;;;;5035237;28;20932;-67
2022/01/06 12:47:17;;;;;;;10.70;3.03;;;8.40;99.90;;;;;;5034724;28;20206;-67
2022/01/06 12:49:42;;;;;;;8.83;3.47;;;8.10;99.90;;;;;;5035208;28;20543;-67
2022/01/06 12:52:08;;;;;;;7.03;2.90;;;7.80;99.90;;;;;;5034968;28;20197;-67
2022/01/06 12:54:37;;;;;;;9.00;4.17;;;7.60;99.90;;;;;;5035082;28;20658;-67
2022/01/06 12:57:03;;;;;;;10.27;2.63;;;7.40;99.90;;;;;;5034747;28;20561;-67
2022/01/06 12:59:35;;;;;;;8.20;2.90;;;7.20;99.90;;;;;;5034973;28;20448;-67
2022/01/06 13:02:03;;;;;;;9.47;3.17;;;7.00;99.90;;;;;;5034899;28;20432;-67